• Join FlightAware (Why Join?)
  • Login
  • US Flag 
01:52PM EST


 

Airport Tracker/Info


-or-


 

Live Flight TrackerFlight Track Log ✈ N383SS ✈ 05-May-2012 ✈ KJWN - KCMH

Flight Track Log - Related Links

Times and Time Zones

All times are in EDT time to prevent confusion due to time zone crossing. See the N383SS flight status page for this flight to view local times or setup timezone preferences in your user account.

Time Position Orientation Groundspeed Altitude Reporting Facility
EDT Latitude Longitude Course Direction KTS MPH feet Rate Location/Type
07:14PM 36.1500 -86.9333 360° North 184 212 2,100  Level Nashville TRACON
07:15PM 36.2000 -86.9333 39° Northeast 174 200 4,100 1,680 Climbing Nashville TRACON
07:16PM 36.2333 -86.9000 42° Northeast 186 214 5,500 1,080 Climbing Nashville TRACON
07:18PM 36.3019 -86.8239 37° Northeast 228 262 7,000 1,440 Climbing Memphis Center
07:19PM 36.3447 -86.7833 39° Northeast 212 244 9,200 2,040 Climbing Memphis Center
07:20PM 36.3853 -86.7428 38° Northeast 194 223 11,100 1,920 Climbing Memphis Center
07:21PM 36.4236 -86.7050 37° Northeast 183 211 13,100 1,860 Climbing Memphis Center
07:22PM 36.4664 -86.6644 40° Northeast 183 211 14,900 1,800 Climbing Memphis Center
07:23PM 36.5108 -86.6186 41° Northeast 183 211 16,800 1,740 Climbing Memphis Center
07:24PM 36.5511 -86.5753 37° Northeast 189 217 18,400 1,560 Climbing Memphis Center
07:25PM 36.5997 -86.5292 40° Northeast 204 235 20,000 1,620 Climbing Memphis Center
07:26PM 36.6442 -86.4831 39° Northeast 204 235 21,700 1,500 Climbing Memphis Center
07:27PM 36.6906 -86.4369 40° Northeast 204 235 23,100 1,440 Climbing Memphis Center
07:28PM 36.7350 -86.3906 38° Northeast 204 235 24,600 1,200 Climbing Memphis Center
07:29PM 36.7775 -86.3497 39° Northeast 204 235 25,600 960 Climbing Memphis Center
07:30PM 36.8239 -86.3033 39° Northeast 204 235 26,600 1,140 Climbing Memphis Center
07:31PM 36.8703 -86.2569 40° Northeast 204 235 27,900 1,080 Climbing Memphis Center
07:32PM 36.9147 -86.2106 39° Northeast 204 235 28,800 540 Climbing Memphis Center
07:33PM 36.9669 -86.1583 39° Northeast 216 249 29,000 60 Climbing Memphis Center
07:35PM 37.0886 -86.0356 41° Northeast 281 323 29,000  Level Indianapolis Center
07:36PM 37.1461 -85.9722 36° Northeast 281 323 29,000  Level Indianapolis Center
07:37PM 37.2014 -85.9219 27° Northeast 276 318 29,000  Level Indianapolis Center
07:38PM 37.2711 -85.8772 28° Northeast 276 318 29,000  Level Indianapolis Center
07:39PM 37.3472 -85.8272 28° Northeast 276 318 29,000  Level Indianapolis Center
07:40PM 37.4147 -85.7822 28° Northeast 276 318 29,000  Level Indianapolis Center
07:41PM 37.4889 -85.7322 27° Northeast 281 323 29,000  Level Indianapolis Center
07:42PM 37.5583 -85.6869 28° Northeast 281 323 29,000  Level Indianapolis Center
07:43PM 37.6322 -85.6367 27° Northeast 287 330 29,000  Level Indianapolis Center
07:44PM 37.6997 -85.5939 27° Northeast 287 330 29,000  Level Indianapolis Center
07:45PM 37.7694 -85.5486 28° Northeast 281 323 29,000  Level Indianapolis Center
07:46PM 37.8411 -85.5006 27° Northeast 292 336 29,000  Level Indianapolis Center
07:47PM 37.9128 -85.4550 30° Northeast 287 330 29,000  Level Indianapolis Center
07:48PM 37.9761 -85.4092 27° Northeast 282 325 29,000  Level Indianapolis Center
07:49PM 38.0478 -85.3636 29° Northeast 282 325 29,000  Level Indianapolis Center
07:50PM 38.1175 -85.3150 28° Northeast 282 325 29,000  Level Indianapolis Center
07:51PM 38.1847 -85.2692 26° Northeast 282 325 29,000  Level Indianapolis Center
07:52PM 38.2583 -85.2233 29° Northeast 282 325 29,000  Level Indianapolis Center
07:53PM 38.3281 -85.1747 27° Northeast 287 330 29,000  Level Indianapolis Center
07:54PM 38.3994 -85.1286 29° Northeast 287 330 29,000  Level Indianapolis Center
07:55PM 38.4647 -85.0822 28° Northeast 287 330 29,000  Level Indianapolis Center
07:56PM 38.5322 -85.0358 29° Northeast 280 322 29,000  Level Indianapolis Center
07:57PM 38.6058 -84.9842 28° Northeast 289 333 29,000  Level Indianapolis Center
07:58PM 38.6625 -84.9453 28° Northeast 284 327 29,000 -120 Level Indianapolis Center
07:59PM 38.7383 -84.8936 28° Northeast 277 319 28,800 -540 Descending Indianapolis Center
08:00PM 38.8117 -84.8442 29° Northeast 288 331 28,000 -900 Descending Indianapolis Center
08:01PM 38.8853 -84.7922 26° Northeast 283 326 27,100 -1,020 Descending Indianapolis Center
08:02PM 38.9503 -84.7506 32° Northeast 289 333 26,000 -1,200 Descending Indianapolis Center
08:03PM 39.0197 -84.6956 54° Northeast 289 333 24,800 -1,200 Descending Indianapolis Center
08:04PM 39.0728 -84.6028 54° Northeast 284 327 23,600 -1,200 Descending Indianapolis Center
08:05PM 39.1214 -84.5153 55° Northeast 294 338 22,400 -1,200 Descending Indianapolis Center
08:06PM 39.1681 -84.4303 55° Northeast 294 338 21,200 -1,200 Descending Indianapolis Center
08:07PM 39.2144 -84.3450 54° Northeast 288 331 20,000 -1,140 Descending Indianapolis Center
08:08PM 39.2608 -84.2622 56° Northeast 283 326 19,000 -540 Descending Indianapolis Center
08:09PM 39.3031 -84.1822 64° Northeast 278 320 19,000 -540 Level Indianapolis Center
08:10PM 39.3367 -84.0914 64° Northeast 272 313 18,000 -1,140 Descending Indianapolis Center
08:11PM 39.3747 -83.9922 64° Northeast 272 313 16,800 -1,200 Descending Indianapolis Center
08:12PM 39.4083 -83.9011 65° Northeast 283 326 15,600 -1,260 Descending Indianapolis Center
08:13PM 39.4400 -83.8150 62° Northeast 268 308 14,300 -1,200 Descending Indianapolis Center
08:14PM 39.4714 -83.7372 63° Northeast 262 302 13,300 -1,200 Descending Indianapolis Center
08:15PM 39.5028 -83.6567 60° Northeast 255 293 12,000 -1,260 Descending Indianapolis Center
08:16PM 39.5361 -83.5811 66° East 257 296 11,000 -780 Descending Indianapolis Center
08:16PM 39.5506 -83.5381 66° East 259 298 11,000  Level Indianapolis Center
08:17PM 39.5672 -83.4897 61° Northeast 260 299 11,000  Level Indianapolis Center
08:18PM 39.6028 -83.4061 60° Northeast 260 299 11,000 -60 Level Indianapolis Center
08:19PM 39.6400 -83.3225 61° Northeast 260 299 10,900 -600 Descending Indianapolis Center
08:20PM 39.6775 -83.2361 56° Northeast 265 305 9,800 -1,200 Descending Indianapolis Center
08:21PM 39.7147 -83.1631 55° Northeast 257 296 8,500 -1,380 Descending Indianapolis Center
08:22PM 39.7542 -83.0897 56° Northeast 247 284 7,100 -1,440 Descending Indianapolis Center
08:23PM 39.7914 -83.0167 55° Northeast 237 273 5,700 -1,380 Descending Indianapolis Center
08:24PM 39.8264 -82.9514 55° Northeast 232 267 4,400 -1,380 Descending Indianapolis Center
08:25PM 39.8594 -82.8889 35° Northeast 213 245 3,000 -900 Descending Indianapolis Center
08:26PM 39.9069 -82.8453 North 206 237 2,700 -420 Descending Indianapolis Center
08:27PM 39.9592 -82.8392 101° East 185 213 2,200 -540 Descending Indianapolis Center
08:35PM 39.9174 -82.5527 101° East  Level FlightAware Approximate